MI1 weather

Denton Farms Airport
Clare, Michigan, United States

Public forecast

Using degrees Fahrenheit for public forecast. Weather courtesy of forecast.io.

METAR (pilot weather report)

Closest report is Mount Pleasant Municipal Airport, 8.6 nm (15.9 km) SSE. Retrieved 2019/09/19 15:36 UTC (15 minutes ago):

KMOP 191536Z AUTO 18004KT 10SM CLR 22/13 A3016 RMK AO2 T02240125

TAF (pilot weather forecast)

Closest forecast is MBS International Airport, 34.4 nm (63.6 km) ESE. Retrieved 2019/09/19 12:22 UTC (3 hours ago):

TAF KMBS 191120Z 1912/2012 VRB03KT P6SM BKN250 FM191300 18007KT P6SM SCT250 FM192200 18005KT P6SM SCT050 FM200500 15005KT P6SM OVC050